createdAt,value
2019-03-31T00:01:45.405Z,21.33
2019-03-31T00:04:16.596Z,14.17
2019-03-31T00:06:47.678Z,18.97
2019-03-31T00:09:18.773Z,19.00
2019-03-31T00:11:49.975Z,22.20
2019-03-31T00:14:21.115Z,20.03
2019-03-31T00:16:52.701Z,24.10
2019-03-31T00:19:23.867Z,17.47
2019-03-31T00:21:55.080Z,25.07
2019-03-31T00:24:26.265Z,24.00
2019-03-31T00:26:57.480Z,18.97
2019-03-31T00:29:28.712Z,20.63
2019-03-31T00:31:59.872Z,21.63
2019-03-31T00:34:31.013Z,24.57
2019-03-31T00:37:02.195Z,18.63
2019-03-31T00:39:33.412Z,26.20
2019-03-31T00:42:04.605Z,21.43
2019-03-31T00:44:35.743Z,16.53
2019-03-31T00:47:06.946Z,26.60
2019-03-31T00:49:38.549Z,16.90
2019-03-31T00:52:10.075Z,21.60
2019-03-31T00:54:41.307Z,28.80
2019-03-31T00:57:12.528Z,19.03
2019-03-31T00:59:43.653Z,18.87
2019-03-31T01:02:18.251Z,20.97
2019-03-31T01:04:49.795Z,21.03
2019-03-31T01:07:23.857Z,17.10
2019-03-31T01:09:57.458Z,22.57
2019-03-31T01:12:28.859Z,19.73
2019-03-31T01:15:00.395Z,20.43
2019-03-31T01:17:33.599Z,19.17
2019-03-31T01:20:05.118Z,18.37
2019-03-31T01:22:36.937Z,22.00
2019-03-31T01:25:08.877Z,14.73
2019-03-31T01:27:40.104Z,16.07
2019-03-31T01:30:12.106Z,18.20
2019-03-31T01:32:43.364Z,17.53
2019-03-31T01:35:15.240Z,20.53
2019-03-31T01:37:46.419Z,15.63
2019-03-31T01:40:17.750Z,18.07
2019-03-31T01:42:48.974Z,18.93
2019-03-31T01:45:20.201Z,21.23
2019-03-31T01:47:51.407Z,21.17
2019-03-31T01:50:24.008Z,19.90
2019-03-31T01:52:55.156Z,21.93
2019-03-31T01:55:26.426Z,21.83
2019-03-31T01:57:58.059Z,18.30
2019-03-31T02:00:39.420Z,15.17
2019-03-31T02:03:10.661Z,21.73
2019-03-31T02:05:41.879Z,20.27
2019-03-31T02:08:13.092Z,25.30
2019-03-31T02:10:44.251Z,18.80
2019-03-31T02:13:15.395Z,21.57
2019-03-31T02:15:46.595Z,17.37
2019-03-31T02:18:17.809Z,16.73
2019-03-31T02:20:48.935Z,17.10
2019-03-31T02:23:20.813Z,26.37
2019-03-31T02:25:52.375Z,19.93
2019-03-31T02:28:23.504Z,17.43
2019-03-31T02:30:54.605Z,19.63
2019-03-31T02:33:25.741Z,19.90
2019-03-31T02:35:56.907Z,22.33
2019-03-31T02:38:28.124Z,21.47
2019-03-31T02:40:59.346Z,16.47
2019-03-31T02:43:31.571Z,23.23
2019-03-31T02:46:02.900Z,17.43
2019-03-31T02:48:34.126Z,20.40
2019-03-31T02:51:05.255Z,25.33
2019-03-31T02:53:36.528Z,19.50
2019-03-31T02:56:07.987Z,21.73
2019-03-31T02:58:39.345Z,19.33
2019-03-31T03:01:10.761Z,17.57
2019-03-31T03:03:42.692Z,21.27
2019-03-31T03:06:15.089Z,22.07
2019-03-31T03:08:49.713Z,19.20
2019-03-31T03:11:22.923Z,19.67
2019-03-31T03:13:56.436Z,22.90
2019-03-31T03:16:27.754Z,23.33
2019-03-31T03:18:58.874Z,22.03
2019-03-31T03:21:30.208Z,19.57
2019-03-31T03:24:01.493Z,34.10
2019-03-31T03:26:32.752Z,25.67
2019-03-31T03:29:04.291Z,22.90
2019-03-31T03:31:35.457Z,24.20
2019-03-31T03:34:06.720Z,20.90
2019-03-31T03:36:37.973Z,28.27
2019-03-31T03:39:09.323Z,21.60
2019-03-31T03:41:40.574Z,26.23
2019-03-31T03:44:11.789Z,21.57
2019-03-31T03:46:42.839Z,25.60
2019-03-31T03:49:14.300Z,26.27
2019-03-31T03:51:45.615Z,23.10
2019-03-31T03:54:16.904Z,24.67
2019-03-31T03:56:48.000Z,23.97
2019-03-31T03:59:19.120Z,30.03
2019-03-31T04:01:50.310Z,30.47
2019-03-31T04:04:21.539Z,28.07
2019-03-31T04:06:53.474Z,27.80
2019-03-31T04:09:24.587Z,27.10
2019-03-31T04:11:55.775Z,21.23
2019-03-31T04:14:27.116Z,25.07
2019-03-31T04:16:58.646Z,21.63
2019-03-31T04:19:29.854Z,24.87
2019-03-31T04:22:01.101Z,24.50
2019-03-31T04:24:34.134Z,25.80
2019-03-31T04:27:05.341Z,31.03
2019-03-31T04:29:36.568Z,23.60
2019-03-31T04:32:07.822Z,25.40
2019-03-31T04:34:38.944Z,23.03
2019-03-31T04:37:10.785Z,23.60
2019-03-31T04:39:42.044Z,20.10
2019-03-31T04:42:13.636Z,14.53
2019-03-31T04:44:45.623Z,19.53
2019-03-31T04:47:16.686Z,15.97
2019-03-31T04:49:47.862Z,21.43
2019-03-31T04:52:19.072Z,17.43
2019-03-31T04:54:50.309Z,23.10
2019-03-31T04:57:21.504Z,22.00
2019-03-31T04:59:52.729Z,18.43
2019-03-31T05:02:27.064Z,22.27
2019-03-31T05:04:56.955Z,24.00
2019-03-31T05:07:29.127Z,20.40
2019-03-31T05:10:00.405Z,18.63
2019-03-31T05:12:31.765Z,17.33
2019-03-31T05:15:03.156Z,15.63
2019-03-31T05:17:35.951Z,18.13
2019-03-31T05:20:07.592Z,16.23
2019-03-31T05:22:38.725Z,19.97
2019-03-31T05:25:09.850Z,15.23
2019-03-31T05:27:41.053Z,24.07
2019-03-31T05:30:12.158Z,19.57
2019-03-31T05:32:43.438Z,28.37
2019-03-31T05:35:14.687Z,21.77
2019-03-31T05:37:51.023Z,18.93
2019-03-31T05:40:18.888Z,16.97
2019-03-31T05:42:50.365Z,22.43
2019-03-31T05:45:21.575Z,21.80
2019-03-31T05:47:52.673Z,19.03
2019-03-31T05:50:23.869Z,18.57
2019-03-31T05:52:55.243Z,15.13
2019-03-31T05:55:26.339Z,20.23
2019-03-31T05:57:57.917Z,16.10
2019-03-31T06:00:37.473Z,16.33
2019-03-31T06:03:09.158Z,14.40
2019-03-31T06:05:40.303Z,13.20
2019-03-31T06:08:11.591Z,13.43
2019-03-31T06:10:42.710Z,16.10
2019-03-31T06:13:13.892Z,13.77
2019-03-31T06:15:45.101Z,12.30
2019-03-31T06:18:16.198Z,12.88
2019-03-31T06:20:47.459Z,14.50
2019-03-31T06:23:18.551Z,16.37
2019-03-31T06:25:49.799Z,11.12
2019-03-31T06:28:21.019Z,11.53
2019-03-31T06:30:52.171Z,14.47
2019-03-31T06:33:23.306Z,15.23
2019-03-31T06:35:54.451Z,16.02
2019-03-31T06:38:25.671Z,14.00
2019-03-31T06:40:56.867Z,15.18
2019-03-31T06:43:28.097Z,15.08
2019-03-31T06:45:59.418Z,12.18
2019-03-31T06:48:30.665Z,15.55
2019-03-31T06:51:02.087Z,16.02
2019-03-31T06:53:33.289Z,13.98
2019-03-31T06:56:04.415Z,14.13
2019-03-31T06:58:35.677Z,15.78
2019-03-31T07:01:06.927Z,16.42
2019-03-31T07:03:38.040Z,15.75
2019-03-31T07:06:09.257Z,17.02
2019-03-31T07:08:40.518Z,19.95
2019-03-31T07:11:12.134Z,18.45
2019-03-31T07:13:43.221Z,16.12
2019-03-31T07:16:14.392Z,14.75
2019-03-31T07:18:45.598Z,14.15
2019-03-31T07:21:17.221Z,16.40
2019-03-31T07:23:48.878Z,15.43
2019-03-31T07:26:19.949Z,15.35
2019-03-31T07:28:51.188Z,14.85
2019-03-31T07:31:22.361Z,16.23
2019-03-31T07:33:53.580Z,14.58
2019-03-31T07:36:24.703Z,16.12
2019-03-31T07:38:55.936Z,16.70
2019-03-31T07:41:27.493Z,17.67
2019-03-31T07:43:58.901Z,14.63
2019-03-31T07:46:30.125Z,14.50
2019-03-31T07:49:01.320Z,20.02
2019-03-31T07:51:32.592Z,14.10
2019-03-31T07:54:03.788Z,15.63
2019-03-31T07:56:35.092Z,17.32
2019-03-31T07:59:06.367Z,15.95
2019-03-31T08:01:37.766Z,15.08
2019-03-31T08:04:08.849Z,17.60
2019-03-31T08:06:41.217Z,19.73
2019-03-31T08:09:12.342Z,19.07
2019-03-31T08:11:43.562Z,16.40
2019-03-31T08:14:14.782Z,18.37
2019-03-31T08:16:45.998Z,17.02
2019-03-31T08:19:20.644Z,16.37
2019-03-31T08:21:50.064Z,17.40
2019-03-31T08:24:21.247Z,18.90
2019-03-31T08:26:52.666Z,16.52
2019-03-31T08:29:23.900Z,19.80
2019-03-31T08:31:55.065Z,15.35
2019-03-31T08:34:26.644Z,17.55
2019-03-31T08:36:58.258Z,18.48
2019-03-31T08:39:29.422Z,13.43
2019-03-31T08:42:00.950Z,15.43
2019-03-31T08:44:32.453Z,16.50
2019-03-31T08:47:04.169Z,17.02
2019-03-31T08:49:35.268Z,22.20
2019-03-31T08:52:06.621Z,19.57
2019-03-31T08:54:38.153Z,17.92
2019-03-31T08:57:09.471Z,18.27
2019-03-31T08:59:40.630Z,17.35
2019-03-31T09:02:29.679Z,23.87
2019-03-31T09:05:00.892Z,16.02
2019-03-31T09:07:32.458Z,17.48
2019-03-31T09:10:03.768Z,15.98
2019-03-31T09:12:35.285Z,14.60
2019-03-31T09:15:08.330Z,16.77
2019-03-31T09:17:39.924Z,16.27
2019-03-31T09:20:13.136Z,16.65
2019-03-31T09:22:44.330Z,15.83
2019-03-31T09:25:15.483Z,19.50
2019-03-31T09:27:46.626Z,19.77
2019-03-31T09:30:17.873Z,20.65
2019-03-31T09:32:49.026Z,21.77
2019-03-31T09:35:20.136Z,20.05
2019-03-31T09:37:51.344Z,19.17
2019-03-31T09:40:22.771Z,16.37
2019-03-31T09:42:53.882Z,20.70
2019-03-31T09:45:25.158Z,20.12
2019-03-31T09:47:56.519Z,13.90
2019-03-31T09:50:27.802Z,15.00
2019-03-31T09:52:58.993Z,14.28
2019-03-31T09:55:30.246Z,21.05
2019-03-31T09:58:01.404Z,18.45
2019-03-31T10:00:45.295Z,17.60
2019-03-31T10:03:17.103Z,18.40
2019-03-31T10:05:48.526Z,14.85
2019-03-31T10:08:22.271Z,13.83
2019-03-31T10:10:54.180Z,16.73
2019-03-31T10:13:25.402Z,15.32
2019-03-31T10:15:58.100Z,17.15
2019-03-31T10:18:29.239Z,15.83
2019-03-31T10:21:00.320Z,13.62
2019-03-31T10:23:32.113Z,18.27
2019-03-31T10:26:03.476Z,14.68
2019-03-31T10:28:34.839Z,15.95
2019-03-31T10:31:06.923Z,18.77
2019-03-31T10:33:38.103Z,18.62
2019-03-31T10:36:12.633Z,12.28
2019-03-31T10:38:42.097Z,17.00
2019-03-31T10:41:13.739Z,19.65
2019-03-31T10:43:44.968Z,14.10
2019-03-31T10:46:16.138Z,18.42
2019-03-31T10:48:47.333Z,15.72
2019-03-31T10:51:19.525Z,18.90
2019-03-31T10:53:50.641Z,11.95
2019-03-31T10:56:21.756Z,13.78
2019-03-31T10:58:53.230Z,13.93
2019-03-31T11:01:24.488Z,13.60
2019-03-31T11:03:55.925Z,15.03
2019-03-31T11:06:32.114Z,13.08
2019-03-31T11:09:05.448Z,16.32
2019-03-31T11:11:36.725Z,17.48
2019-03-31T11:14:07.970Z,15.40
2019-03-31T11:16:39.231Z,13.10
2019-03-31T11:19:10.575Z,13.65
2019-03-31T11:21:52.212Z,16.80
2019-03-31T11:24:23.384Z,16.60
2019-03-31T11:26:54.585Z,16.85
2019-03-31T11:29:25.688Z,14.23
2019-03-31T11:31:56.942Z,16.17
2019-03-31T11:34:28.173Z,18.15
2019-03-31T11:37:12.524Z,19.02
2019-03-31T11:39:32.430Z,22.30
2019-03-31T11:42:03.621Z,15.18
2019-03-31T11:44:34.756Z,15.23
2019-03-31T11:47:05.888Z,13.45
2019-03-31T11:49:37.192Z,9.23
2019-03-31T11:52:08.439Z,12.70
2019-03-31T11:54:39.565Z,8.10
2019-03-31T11:57:10.868Z,5.95
2019-03-31T11:59:42.207Z,8.55
2019-03-31T12:02:26.327Z,6.45
2019-03-31T12:04:46.911Z,10.15
2019-03-31T12:07:27.815Z,7.45
2019-03-31T12:09:53.979Z,11.40
2019-03-31T12:12:25.117Z,8.08
2019-03-31T12:15:00.545Z,10.35
2019-03-31T12:17:30.284Z,9.00
2019-03-31T12:20:01.797Z,9.20
2019-03-31T12:22:33.087Z,6.53
2019-03-31T12:25:04.627Z,11.57
2019-03-31T12:27:36.748Z,4.70
2019-03-31T12:30:08.191Z,6.58
2019-03-31T12:32:39.400Z,9.33
2019-03-31T12:35:11.013Z,8.75
2019-03-31T12:37:43.447Z,13.85
2019-03-31T12:40:28.896Z,11.28
2019-03-31T12:43:00.051Z,9.03
2019-03-31T12:45:32.152Z,4.53
2019-03-31T12:48:03.412Z,4.67
2019-03-31T12:50:35.650Z,3.92
2019-03-31T12:53:06.910Z,5.42
2019-03-31T12:55:38.150Z,4.33
2019-03-31T12:58:09.357Z,8.23
2019-03-31T13:00:40.995Z,3.98
2019-03-31T13:03:15.888Z,4.37
2019-03-31T13:05:45.410Z,4.72
2019-03-31T13:08:16.654Z,3.83
2019-03-31T13:10:47.883Z,5.17
2019-03-31T13:13:19.139Z,8.10
2019-03-31T13:15:50.214Z,11.20
2019-03-31T13:18:21.582Z,4.12
2019-03-31T13:20:52.746Z,4.28
2019-03-31T13:23:23.971Z,5.78
2019-03-31T13:25:55.113Z,6.05
2019-03-31T13:28:26.714Z,9.33
2019-03-31T13:30:58.871Z,6.90
2019-03-31T13:33:30.447Z,5.70
2019-03-31T13:36:01.659Z,5.47
2019-03-31T13:38:32.875Z,5.20
2019-03-31T13:41:04.658Z,9.78
2019-03-31T13:43:36.485Z,9.28
2019-03-31T13:46:07.918Z,6.40
2019-03-31T13:48:39.193Z,7.92
2019-03-31T13:51:10.471Z,9.30
2019-03-31T13:53:41.778Z,11.03
2019-03-31T13:56:13.796Z,6.12
2019-03-31T13:58:52.639Z,6.67
2019-03-31T14:01:18.607Z,7.92
2019-03-31T14:03:49.861Z,9.48
2019-03-31T14:06:21.190Z,6.95
2019-03-31T14:08:52.377Z,7.28
2019-03-31T14:11:23.575Z,11.22
2019-03-31T14:13:56.122Z,11.35
2019-03-31T14:16:29.052Z,8.13
2019-03-31T14:19:00.702Z,5.60
2019-03-31T14:21:31.905Z,7.67
2019-03-31T14:24:03.269Z,5.70
2019-03-31T14:26:34.806Z,6.72
2019-03-31T14:29:06.378Z,11.75
2019-03-31T14:31:37.537Z,7.50
2019-03-31T14:34:08.796Z,6.80
2019-03-31T14:36:41.474Z,6.17
2019-03-31T14:39:12.646Z,5.45
2019-03-31T14:41:43.973Z,10.25
2019-03-31T14:44:15.309Z,6.55
2019-03-31T14:46:46.511Z,4.92
2019-03-31T14:49:18.054Z,7.47
2019-03-31T14:51:49.336Z,9.00
2019-03-31T14:54:20.620Z,8.65
2019-03-31T14:56:51.755Z,6.58
2019-03-31T14:59:23.015Z,12.13
2019-03-31T15:01:55.172Z,9.18
2019-03-31T15:04:26.407Z,8.28
2019-03-31T15:06:57.639Z,8.65
2019-03-31T15:09:28.902Z,8.90
2019-03-31T15:12:00.007Z,6.87
2019-03-31T15:14:31.234Z,8.88
2019-03-31T15:17:02.403Z,8.35
2019-03-31T15:19:33.709Z,9.38
2019-03-31T15:22:04.790Z,9.40
2019-03-31T15:24:35.891Z,7.53
2019-03-31T15:27:07.166Z,7.50
2019-03-31T15:29:38.711Z,6.35
2019-03-31T15:32:09.985Z,9.98
2019-03-31T15:34:41.227Z,7.58
2019-03-31T15:37:12.541Z,8.38
2019-03-31T15:39:44.179Z,7.17
2019-03-31T15:42:15.277Z,9.18
2019-03-31T15:44:46.401Z,13.85
2019-03-31T15:47:17.857Z,7.37
2019-03-31T15:49:48.965Z,11.95
2019-03-31T15:52:20.250Z,12.33
2019-03-31T15:54:51.537Z,6.30
2019-03-31T15:57:22.759Z,15.90
2019-03-31T15:59:54.242Z,6.20
2019-03-31T16:02:26.837Z,10.03
2019-03-31T16:04:58.224Z,6.12
2019-03-31T16:07:29.571Z,11.93
2019-03-31T16:10:00.397Z,10.08
2019-03-31T16:12:31.208Z,10.13
2019-03-31T16:15:01.953Z,12.95
2019-03-31T16:17:34.256Z,13.22
2019-03-31T16:20:06.108Z,13.13
2019-03-31T16:22:36.723Z,13.85
2019-03-31T16:25:14.740Z,15.03
2019-03-31T16:27:45.383Z,10.35
2019-03-31T16:30:16.029Z,11.03
2019-03-31T16:32:47.372Z,13.20
2019-03-31T16:35:18.083Z,11.22
2019-03-31T16:37:48.713Z,11.05
2019-03-31T16:40:19.359Z,13.22
2019-03-31T16:42:49.897Z,11.35
2019-03-31T16:45:20.575Z,17.20
2019-03-31T16:47:51.279Z,16.57
2019-03-31T16:50:21.822Z,12.70
2019-03-31T16:52:52.923Z,14.03
2019-03-31T16:55:24.182Z,12.82
2019-03-31T16:57:54.823Z,13.77
2019-03-31T17:00:25.488Z,17.73
2019-03-31T17:02:56.552Z,17.83
2019-03-31T17:05:27.270Z,19.77
2019-03-31T17:07:57.959Z,23.97
2019-03-31T17:10:28.733Z,24.80
2019-03-31T17:12:59.404Z,25.77
2019-03-31T17:15:30.340Z,28.20
2019-03-31T17:18:01.106Z,30.13
2019-03-31T17:20:31.761Z,33.07
2019-03-31T17:23:02.479Z,32.43
2019-03-31T17:25:33.187Z,32.10
2019-03-31T17:28:03.857Z,33.00
2019-03-31T17:30:34.530Z,34.40
2019-03-31T17:33:06.185Z,40.63
2019-03-31T17:35:36.764Z,40.50
2019-03-31T17:38:07.763Z,41.03
2019-03-31T17:40:38.375Z,33.93
2019-03-31T17:43:09.060Z,47.83
2019-03-31T17:45:39.731Z,34.07
2019-03-31T17:48:10.369Z,38.60
2019-03-31T17:50:41.081Z,37.17
2019-03-31T17:53:11.809Z,39.70
2019-03-31T17:55:43.043Z,41.77
2019-03-31T17:58:13.688Z,42.87
2019-03-31T18:00:44.486Z,44.17
2019-03-31T18:03:15.740Z,42.63
2019-03-31T18:05:46.655Z,44.73
2019-03-31T18:08:17.411Z,42.10
2019-03-31T18:10:47.958Z,41.47
2019-03-31T18:13:18.653Z,41.07
2019-03-31T18:15:49.232Z,44.33
2019-03-31T18:18:19.992Z,39.03
2019-03-31T18:20:50.726Z,42.07
2019-03-31T18:23:21.688Z,41.00
2019-03-31T18:25:52.372Z,41.30
2019-03-31T18:28:23.193Z,41.47
2019-03-31T18:30:53.930Z,42.30
2019-03-31T18:33:24.578Z,38.37
2019-03-31T18:35:55.180Z,39.67
2019-03-31T18:38:25.889Z,36.27
2019-03-31T18:40:56.607Z,46.63
2019-03-31T18:43:27.247Z,40.50
2019-03-31T18:45:58.021Z,42.47
2019-03-31T18:48:29.440Z,42.83
2019-03-31T18:51:00.192Z,46.33
2019-03-31T18:53:36.533Z,37.37
2019-03-31T18:56:19.908Z,42.63
2019-03-31T18:59:08.169Z,46.57
2019-03-31T19:01:57.848Z,43.83
2019-03-31T19:04:39.196Z,46.33
2019-03-31T19:07:27.810Z,46.47
2019-03-31T19:10:48.486Z,44.83
2019-03-31T19:13:28.761Z,47.93
2019-03-31T19:16:36.435Z,38.40
2019-03-31T19:19:17.878Z,38.97
2019-03-31T19:21:57.699Z,42.07
2019-03-31T19:24:50.407Z,41.10
2019-03-31T19:27:33.957Z,37.93
2019-03-31T19:30:24.987Z,38.00
2019-03-31T19:33:16.037Z,36.97
2019-03-31T19:35:55.898Z,37.00
2019-03-31T19:38:39.136Z,46.30
2019-03-31T19:41:21.934Z,39.47
2019-03-31T19:44:11.810Z,36.83
2019-03-31T19:47:01.555Z,36.30
2019-03-31T19:49:57.404Z,38.40
2019-03-31T19:52:59.661Z,41.57
2019-03-31T19:55:41.006Z,38.60
2019-03-31T19:58:28.321Z,44.50
2019-03-31T20:01:10.476Z,40.13
2019-03-31T20:04:01.175Z,38.80
2019-03-31T20:06:43.245Z,37.13
2019-03-31T20:09:41.901Z,42.23
2019-03-31T20:12:30.589Z,42.40
2019-03-31T20:15:21.745Z,42.60
2019-03-31T20:18:15.138Z,45.27
2019-03-31T20:21:07.430Z,39.50
2019-03-31T20:23:44.855Z,39.10
2019-03-31T20:26:37.579Z,36.40
2019-03-31T20:29:17.740Z,40.73
2019-03-31T20:32:13.726Z,40.93
2019-03-31T20:34:59.368Z,43.13
2019-03-31T20:37:48.306Z,49.57
2019-03-31T20:40:38.955Z,38.47
2019-03-31T20:43:33.168Z,46.80
2019-03-31T20:46:04.622Z,40.23
2019-03-31T20:48:37.660Z,40.73
2019-03-31T20:51:08.564Z,45.83
2019-03-31T20:53:39.222Z,55.60
2019-03-31T20:56:10.035Z,45.23
2019-03-31T20:58:40.769Z,41.00
2019-03-31T21:01:11.484Z,41.73
2019-03-31T21:03:42.072Z,39.83
2019-03-31T21:06:15.593Z,43.53
2019-03-31T21:08:46.344Z,47.73
2019-03-31T21:11:16.951Z,50.60
2019-03-31T21:13:47.624Z,44.23
2019-03-31T21:16:18.281Z,49.17
2019-03-31T21:18:48.865Z,46.90
2019-03-31T21:21:19.853Z,41.43
2019-03-31T21:23:50.430Z,48.00
2019-03-31T21:26:21.034Z,47.90
2019-03-31T21:28:52.713Z,46.00
2019-03-31T21:31:23.424Z,48.07
2019-03-31T21:33:54.088Z,43.50
2019-03-31T21:36:24.716Z,43.97
2019-03-31T21:38:56.486Z,42.37
2019-03-31T21:41:27.004Z,44.47
2019-03-31T21:43:57.780Z,40.60
2019-03-31T21:46:28.597Z,47.27
2019-03-31T21:48:59.302Z,47.77
2019-03-31T21:51:30.355Z,52.50
2019-03-31T21:54:00.914Z,54.83
2019-03-31T21:56:31.479Z,47.90
2019-03-31T21:59:02.051Z,42.83
2019-03-31T22:01:32.665Z,56.87
2019-03-31T22:04:04.472Z,50.03
2019-03-31T22:06:36.265Z,47.47
2019-03-31T22:09:09.709Z,48.70
2019-03-31T22:11:40.557Z,49.97
2019-03-31T22:14:11.237Z,44.93
2019-03-31T22:16:41.889Z,55.30
2019-03-31T22:19:12.456Z,48.57
2019-03-31T22:21:43.065Z,47.83
2019-03-31T22:24:13.654Z,50.00
2019-03-31T22:26:44.681Z,47.40
2019-03-31T22:29:15.355Z,44.70
2019-03-31T22:31:46.009Z,51.83
2019-03-31T22:34:16.621Z,46.40
2019-03-31T22:36:47.313Z,46.30
2019-03-31T22:39:17.966Z,46.60
2019-03-31T22:41:48.501Z,46.90
2019-03-31T22:44:19.199Z,47.17
2019-03-31T22:46:54.423Z,42.53
2019-03-31T22:49:22.171Z,54.33
2019-03-31T22:51:56.192Z,52.17
2019-03-31T22:54:25.156Z,46.83
2019-03-31T22:56:55.833Z,50.87
2019-03-31T22:59:26.507Z,49.17
2019-03-31T23:01:57.164Z,54.77
2019-03-31T23:04:28.166Z,51.23
2019-03-31T23:06:58.849Z,48.03
2019-03-31T23:09:29.431Z,56.50
2019-03-31T23:12:00.541Z,50.47
2019-03-31T23:14:32.226Z,54.03
2019-03-31T23:17:02.883Z,52.93
2019-03-31T23:19:33.439Z,58.40
2019-03-31T23:22:05.874Z,51.90
2019-03-31T23:24:36.542Z,56.73
2019-03-31T23:27:07.173Z,51.83
2019-03-31T23:29:37.866Z,54.07
2019-03-31T23:32:09.327Z,47.27
2019-03-31T23:34:40.042Z,55.20
2019-03-31T23:37:10.743Z,46.40
2019-03-31T23:39:41.543Z,60.43
2019-03-31T23:42:12.065Z,54.33
2019-03-31T23:44:43.381Z,56.43
2019-03-31T23:47:13.971Z,50.23
2019-03-31T23:49:44.632Z,54.23
2019-03-31T23:52:15.765Z,50.83
2019-03-31T23:54:47.135Z,52.83
2019-03-31T23:57:17.738Z,57.07
2019-03-31T23:59:48.725Z,55.07
